createdAt,value
2023-10-07T00:01:35.232Z,99185.64
2023-10-07T00:04:40.076Z,99182.88
2023-10-07T00:07:45.410Z,99181.06
2023-10-07T00:10:51.186Z,99174.70
2023-10-07T00:13:57.155Z,99169.73
2023-10-07T00:17:07.198Z,99167.14
2023-10-07T00:20:12.343Z,99160.70
2023-10-07T00:23:22.007Z,99160.95
2023-10-07T00:26:27.936Z,99159.15
2023-10-07T00:29:41.214Z,99155.09
2023-10-07T00:32:46.714Z,99151.73
2023-10-07T00:35:51.483Z,99145.58
2023-10-07T00:38:55.699Z,99141.04
2023-10-07T00:42:00.446Z,99137.86
2023-10-07T00:45:14.702Z,99132.31
2023-10-07T00:48:18.653Z,99125.23
2023-10-07T00:51:34.768Z,99120.77
2023-10-07T00:54:51.020Z,99112.03
2023-10-07T00:58:05.773Z,99106.02
2023-10-07T01:01:11.232Z,99104.23
2023-10-07T01:04:17.407Z,99094.09
2023-10-07T01:07:21.605Z,99092.30
2023-10-07T01:10:29.236Z,99089.09
2023-10-07T01:13:34.316Z,99084.27
2023-10-07T01:16:45.403Z,99085.52
2023-10-07T01:19:54.659Z,99079.58
2023-10-07T01:23:05.629Z,99079.23
2023-10-07T01:26:17.099Z,99074.90
2023-10-07T01:29:22.247Z,99072.96
2023-10-07T01:32:33.053Z,99070.63
2023-10-07T01:35:40.860Z,99070.73
2023-10-07T01:38:46.322Z,99065.61
2023-10-07T01:41:50.820Z,99058.97
2023-10-07T01:44:59.023Z,99058.56
2023-10-07T01:48:08.704Z,99059.10
2023-10-07T01:51:15.965Z,99052.17
2023-10-07T01:54:21.192Z,99054.94
2023-10-07T01:57:25.137Z,99052.27
2023-10-07T02:00:44.858Z,99047.72
2023-10-07T02:03:48.995Z,99037.98
2023-10-07T02:06:53.402Z,99030.29
2023-10-07T02:09:59.280Z,99034.56
2023-10-07T02:13:03.866Z,99035.55
2023-10-07T02:16:09.365Z,99035.35
2023-10-07T02:19:16.217Z,99034.68
2023-10-07T02:22:23.845Z,99024.98
2023-10-07T02:25:30.778Z,99013.11
2023-10-07T02:28:35.685Z,99007.05
2023-10-07T02:31:44.854Z,99003.67
2023-10-07T02:34:57.577Z,99000.70
2023-10-07T02:38:04.770Z,98997.75
2023-10-07T02:41:17.943Z,98990.60
2023-10-07T02:44:28.913Z,98988.88
2023-10-07T02:47:33.858Z,98988.88
2023-10-07T02:50:41.045Z,98980.77
2023-10-07T02:53:44.989Z,98982.45
2023-10-07T02:56:56.044Z,98979.14
2023-10-07T03:00:15.210Z,98977.06
2023-10-07T03:03:34.517Z,98978.68
2023-10-07T03:06:39.159Z,98973.08
2023-10-07T03:09:53.023Z,98969.83
2023-10-07T03:12:59.004Z,98964.35
2023-10-07T03:16:29.272Z,98964.35
2023-10-07T03:19:49.208Z,98957.57
2023-10-07T03:23:11.683Z,98953.77
2023-10-07T03:26:18.740Z,98954.59
2023-10-07T03:29:32.246Z,98953.07
2023-10-07T03:32:55.937Z,98954.58
2023-10-07T03:36:15.737Z,98950.83
2023-10-07T03:39:27.561Z,98950.45
2023-10-07T03:42:31.844Z,98946.65
2023-10-07T03:45:37.406Z,98942.81
2023-10-07T03:48:42.274Z,98946.91
2023-10-07T03:51:49.373Z,98945.16
2023-10-07T03:54:55.202Z,98938.66
2023-10-07T03:57:59.143Z,98935.73
2023-10-07T04:01:13.098Z,98935.92
2023-10-07T04:04:17.361Z,98936.41
2023-10-07T04:07:21.321Z,98935.31
2023-10-07T04:10:32.897Z,98928.27
2023-10-07T04:13:38.116Z,98927.33
2023-10-07T04:16:43.769Z,98924.44
2023-10-07T04:19:54.096Z,98923.14
2023-10-07T04:23:02.285Z,98926.61
2023-10-07T04:26:12.940Z,98930.52
2023-10-07T04:29:17.201Z,98926.56
2023-10-07T04:32:23.571Z,98924.67
2023-10-07T04:35:32.259Z,98920.91
2023-10-07T04:38:53.934Z,98920.15
2023-10-07T04:42:00.720Z,98918.20
2023-10-07T04:45:22.521Z,98924.55
2023-10-07T04:48:32.965Z,98928.95
2023-10-07T04:51:49.226Z,98932.13
2023-10-07T04:54:54.126Z,98932.78
2023-10-07T04:58:01.009Z,98939.06
2023-10-07T05:01:23.600Z,98942.41
2023-10-07T05:04:29.755Z,98943.93
2023-10-07T05:07:33.723Z,98940.00
2023-10-07T05:10:40.037Z,98928.87
2023-10-07T05:13:46.146Z,98926.81
2023-10-07T05:16:50.562Z,98931.09
2023-10-07T05:19:54.693Z,98936.88
2023-10-07T05:23:01.893Z,98941.28
2023-10-07T05:26:10.465Z,98947.19
2023-10-07T05:29:16.309Z,98950.05
2023-10-07T05:32:20.391Z,98950.85
2023-10-07T05:35:24.636Z,98950.89
2023-10-07T05:38:28.714Z,98948.42
2023-10-07T05:41:33.476Z,98948.90
2023-10-07T05:44:39.144Z,98950.76
2023-10-07T05:47:46.507Z,98955.13
2023-10-07T05:50:50.507Z,98950.42
2023-10-07T05:53:54.496Z,98941.79
2023-10-07T05:57:01.927Z,98946.05
2023-10-07T06:00:11.139Z,98951.38
2023-10-07T06:03:15.155Z,98955.02
2023-10-07T06:06:19.098Z,98956.63
2023-10-07T06:09:23.649Z,98957.54
2023-10-07T06:12:29.580Z,98961.00
2023-10-07T06:15:35.347Z,98965.29
2023-10-07T06:18:40.742Z,98967.76
2023-10-07T06:21:52.432Z,98969.22
2023-10-07T06:25:02.301Z,98966.35
2023-10-07T06:28:07.031Z,98961.59
2023-10-07T06:31:14.264Z,98957.72
2023-10-07T06:34:26.854Z,98951.94
2023-10-07T06:37:31.307Z,98955.92
2023-10-07T06:40:37.030Z,98959.61
2023-10-07T06:43:43.876Z,98958.63
2023-10-07T06:46:49.017Z,98962.27
2023-10-07T06:49:57.403Z,98965.27
2023-10-07T06:53:01.426Z,98958.92
2023-10-07T06:56:05.635Z,98954.54
2023-10-07T06:59:12.148Z,98949.48
2023-10-07T07:02:20.223Z,98949.11
2023-10-07T07:05:25.478Z,98946.52
2023-10-07T07:08:29.449Z,98935.89
2023-10-07T07:11:35.215Z,98937.23
2023-10-07T07:14:43.225Z,98939.12
2023-10-07T07:17:47.246Z,98945.44
2023-10-07T07:20:56.279Z,98946.98
2023-10-07T07:24:01.390Z,98949.24
2023-10-07T07:27:05.360Z,98952.65
2023-10-07T07:30:18.644Z,98956.65
2023-10-07T07:33:29.954Z,98956.33
2023-10-07T07:36:40.567Z,98948.33
2023-10-07T07:39:49.011Z,98941.33
2023-10-07T07:42:56.643Z,98937.00
2023-10-07T07:46:30.566Z,98936.38
2023-10-07T07:49:40.196Z,98935.14
2023-10-07T07:52:44.189Z,98935.57
2023-10-07T07:55:48.408Z,98934.17
2023-10-07T07:58:54.217Z,98932.31
2023-10-07T08:02:03.730Z,98931.23
2023-10-07T08:05:09.377Z,98927.30
2023-10-07T08:08:26.076Z,98928.38
2023-10-07T08:11:36.422Z,98933.98
2023-10-07T08:14:40.431Z,98938.99
2023-10-07T08:17:46.316Z,98941.05
2023-10-07T08:20:50.391Z,98934.86
2023-10-07T08:23:54.335Z,98941.60
2023-10-07T08:27:01.094Z,98944.60
2023-10-07T08:30:08.152Z,98951.95
2023-10-07T08:33:13.850Z,98947.37
2023-10-07T08:36:19.052Z,98938.38
2023-10-07T08:39:28.562Z,98933.32
2023-10-07T08:42:33.341Z,98936.77
2023-10-07T08:45:40.692Z,98942.94
2023-10-07T08:48:51.038Z,98939.39
2023-10-07T08:51:55.942Z,98930.20
2023-10-07T08:55:01.408Z,98929.88
2023-10-07T08:58:06.649Z,98933.88
2023-10-07T09:01:18.527Z,98933.65
2023-10-07T09:04:23.262Z,98926.58
2023-10-07T09:07:32.552Z,98926.64
2023-10-07T09:10:38.217Z,98920.18
2023-10-07T09:13:43.795Z,98914.08
2023-10-07T09:16:50.921Z,98911.77
2023-10-07T09:20:00.045Z,98907.86
2023-10-07T09:23:08.547Z,98898.59
2023-10-07T09:26:23.511Z,98903.73
2023-10-07T09:29:30.418Z,98901.86
2023-10-07T09:32:34.728Z,98903.89
2023-10-07T09:35:39.133Z,98911.20
2023-10-07T09:38:43.941Z,98911.95
2023-10-07T09:42:04.777Z,98911.63
2023-10-07T09:45:18.820Z,98914.67
2023-10-07T09:48:31.192Z,98904.58
2023-10-07T09:51:42.888Z,98892.04
2023-10-07T09:55:20.360Z,98882.79
2023-10-07T09:58:38.052Z,98876.91
2023-10-07T10:01:55.470Z,98880.05
2023-10-07T10:05:13.596Z,98876.72
2023-10-07T10:08:29.126Z,98869.55
2023-10-07T10:11:45.389Z,98868.86
2023-10-07T10:15:19.174Z,98863.80
2023-10-07T10:18:40.340Z,98865.05
2023-10-07T10:21:45.177Z,98864.77
2023-10-07T10:24:49.079Z,98855.97
2023-10-07T10:28:00.001Z,98854.92
2023-10-07T10:31:08.433Z,98854.73
2023-10-07T10:34:16.167Z,98853.63
2023-10-07T10:37:21.751Z,98853.09
2023-10-07T10:40:32.727Z,98847.51
2023-10-07T10:43:36.687Z,98852.89
2023-10-07T10:46:47.472Z,98853.33
2023-10-07T10:49:56.346Z,98839.25
2023-10-07T10:53:01.619Z,98839.40
2023-10-07T10:56:07.073Z,98832.73
2023-10-07T10:59:11.133Z,98830.45
2023-10-07T11:02:18.925Z,98826.35
2023-10-07T11:05:23.752Z,98816.55
2023-10-07T11:08:28.210Z,98823.98
2023-10-07T11:11:32.499Z,98829.61
2023-10-07T11:14:37.042Z,98837.17
2023-10-07T11:17:54.153Z,98831.66
2023-10-07T11:20:58.134Z,98821.94
2023-10-07T11:24:02.500Z,98816.66
2023-10-07T11:27:10.033Z,98816.15
2023-10-07T11:30:16.317Z,98808.45
2023-10-07T11:33:21.291Z,98811.99
2023-10-07T11:36:25.806Z,98805.73
2023-10-07T11:39:31.166Z,98798.24
2023-10-07T11:42:35.407Z,98789.58
2023-10-07T11:45:41.367Z,98793.09
2023-10-07T11:48:46.150Z,98796.13
2023-10-07T11:51:50.256Z,98786.67
2023-10-07T11:54:54.272Z,98790.66
2023-10-07T11:57:59.983Z,98791.55
2023-10-07T12:01:05.013Z,98786.13
2023-10-07T12:04:10.009Z,98787.51
2023-10-07T12:07:15.691Z,98779.20
2023-10-07T12:10:21.145Z,98765.95
2023-10-07T12:13:25.093Z,98765.05
2023-10-07T12:16:30.452Z,98760.25
2023-10-07T12:19:35.659Z,98762.45
2023-10-07T12:22:40.269Z,98773.90
2023-10-07T12:25:44.209Z,98775.58
2023-10-07T12:28:50.381Z,98785.39
2023-10-07T12:31:54.544Z,98783.98
2023-10-07T12:34:59.881Z,98773.19
2023-10-07T12:38:03.952Z,98766.21
2023-10-07T12:41:08.933Z,98759.30
2023-10-07T12:44:13.310Z,98766.02
2023-10-07T12:47:18.237Z,98760.35
2023-10-07T12:50:25.414Z,98755.63
2023-10-07T12:53:29.816Z,98754.63
2023-10-07T12:56:34.966Z,98742.85
2023-10-07T12:59:39.246Z,98739.51
2023-10-07T13:02:45.492Z,98741.25
2023-10-07T13:05:49.659Z,98743.09
2023-10-07T13:08:55.089Z,98737.63
2023-10-07T13:11:59.913Z,98732.48
2023-10-07T13:15:04.496Z,98730.67
2023-10-07T13:18:10.481Z,98735.08
2023-10-07T13:21:17.796Z,98732.46
2023-10-07T13:24:21.801Z,98726.33
2023-10-07T13:27:25.710Z,98725.31
2023-10-07T13:30:31.528Z,98727.19
2023-10-07T13:33:37.274Z,98726.95
2023-10-07T13:36:43.666Z,98725.35
2023-10-07T13:39:47.660Z,98729.23
2023-10-07T13:42:52.691Z,98733.41
2023-10-07T13:45:56.636Z,98734.40
2023-10-07T13:49:01.430Z,98737.10
2023-10-07T13:52:07.104Z,98737.07
2023-10-07T13:55:23.326Z,98735.05
2023-10-07T13:58:27.254Z,98742.81
2023-10-07T14:01:31.310Z,98746.29
2023-10-07T14:04:36.024Z,98747.19
2023-10-07T14:07:40.888Z,98740.39
2023-10-07T14:10:46.606Z,98737.04
2023-10-07T14:13:50.603Z,98733.91
2023-10-07T14:17:00.189Z,98739.18
2023-10-07T14:20:07.502Z,98748.43
2023-10-07T14:23:15.594Z,98747.29
2023-10-07T14:26:20.921Z,98754.21
2023-10-07T14:29:27.876Z,98760.48
2023-10-07T14:32:32.396Z,98766.61
2023-10-07T14:35:39.212Z,98767.05
2023-10-07T14:38:43.657Z,98779.02
2023-10-07T14:41:47.563Z,98784.77
2023-10-07T14:44:52.596Z,98794.95
2023-10-07T14:47:56.652Z,98788.12
2023-10-07T14:51:05.450Z,98789.78
2023-10-07T14:54:09.607Z,98786.42
2023-10-07T14:57:18.936Z,98782.81
2023-10-07T15:00:23.299Z,98770.61
2023-10-07T15:03:29.066Z,98769.33
2023-10-07T15:06:34.897Z,98766.15
2023-10-07T15:09:38.829Z,98752.61
2023-10-07T15:12:43.578Z,98750.56
2023-10-07T15:15:48.412Z,98742.29
2023-10-07T15:18:53.956Z,98741.12
2023-10-07T15:21:58.515Z,98736.63
2023-10-07T15:25:02.449Z,98734.36
2023-10-07T15:28:07.454Z,98744.21
2023-10-07T15:31:12.364Z,98752.77
2023-10-07T15:34:16.351Z,98751.36
2023-10-07T15:37:20.333Z,98749.38
2023-10-07T15:40:24.403Z,98744.69
2023-10-07T15:43:28.362Z,98745.54
2023-10-07T15:46:32.989Z,98747.16
2023-10-07T15:49:37.409Z,98739.41
2023-10-07T15:52:41.390Z,98733.52
2023-10-07T15:55:45.421Z,98729.48
2023-10-07T15:58:49.845Z,98715.73
2023-10-07T16:01:53.986Z,98715.98
2023-10-07T16:04:58.261Z,98708.30
2023-10-07T16:08:02.402Z,98703.70
2023-10-07T16:11:07.645Z,98691.65
2023-10-07T16:14:11.841Z,98684.16
2023-10-07T16:17:15.886Z,98684.79
2023-10-07T16:20:20.553Z,98680.44
2023-10-07T16:23:24.838Z,98679.34
2023-10-07T16:26:28.957Z,98676.56
2023-10-07T16:29:32.913Z,98678.40
2023-10-07T16:32:38.538Z,98667.78
2023-10-07T16:35:42.584Z,98660.98
2023-10-07T16:38:46.652Z,98665.55
2023-10-07T16:41:54.534Z,98656.83
2023-10-07T16:44:58.958Z,98645.61
2023-10-07T16:48:04.840Z,98639.35
2023-10-07T16:51:11.417Z,98631.02
2023-10-07T16:54:15.500Z,98631.07
2023-10-07T16:57:19.459Z,98625.34
2023-10-07T17:00:23.837Z,98617.84
2023-10-07T17:03:28.398Z,98611.79
2023-10-07T17:06:32.491Z,98605.30
2023-10-07T17:09:36.466Z,98603.77
2023-10-07T17:12:40.399Z,98600.06
2023-10-07T17:15:45.027Z,98593.70
2023-10-07T17:18:51.506Z,98596.57
2023-10-07T17:21:56.250Z,98594.37
2023-10-07T17:25:00.361Z,98602.02
2023-10-07T17:28:05.005Z,98602.95
2023-10-07T17:31:12.194Z,98608.50
2023-10-07T17:34:16.304Z,98607.95
2023-10-07T17:37:20.229Z,98619.17
2023-10-07T17:40:24.352Z,98629.90
2023-10-07T17:43:28.530Z,98642.33
2023-10-07T17:46:32.432Z,98657.65
2023-10-07T17:49:36.360Z,98673.95
2023-10-07T17:52:40.777Z,98678.70
2023-10-07T17:55:46.660Z,98685.41
2023-10-07T17:58:51.279Z,98685.44
2023-10-07T18:01:55.244Z,98703.52
2023-10-07T18:05:00.158Z,98704.60
2023-10-07T18:08:04.841Z,98698.74
2023-10-07T18:11:08.869Z,98703.08
2023-10-07T18:14:13.336Z,98701.73
2023-10-07T18:17:17.367Z,98697.20
2023-10-07T18:20:21.914Z,98699.75
2023-10-07T18:23:27.091Z,98702.33
2023-10-07T18:26:31.184Z,98702.52
2023-10-07T18:29:35.262Z,98708.58
2023-10-07T18:32:39.990Z,98710.66
2023-10-07T18:35:44.188Z,98718.70
2023-10-07T18:38:48.181Z,98714.97
2023-10-07T18:41:52.784Z,98711.92
2023-10-07T18:44:56.738Z,98710.40
2023-10-07T18:48:00.793Z,98715.71
2023-10-07T18:51:08.280Z,98720.73
2023-10-07T18:54:12.422Z,98727.74
2023-10-07T18:57:16.479Z,98729.33
2023-10-07T19:00:20.930Z,98730.00
2023-10-07T19:03:24.974Z,98727.59
2023-10-07T19:06:29.946Z,98727.65
2023-10-07T19:09:34.984Z,98728.24
2023-10-07T19:12:39.363Z,98731.30
2023-10-07T19:15:46.817Z,98727.50
2023-10-07T19:18:51.516Z,98728.09
2023-10-07T19:21:57.860Z,98730.67
2023-10-07T19:25:01.783Z,98728.10
2023-10-07T19:28:06.819Z,98733.78
2023-10-07T19:31:14.054Z,98731.05
2023-10-07T19:34:18.379Z,98733.34
2023-10-07T19:37:22.249Z,98737.64
2023-10-07T19:40:26.220Z,98736.25
2023-10-07T19:43:30.110Z,98737.96
2023-10-07T19:46:34.005Z,98736.55
2023-10-07T19:49:38.736Z,98736.38
2023-10-07T19:52:42.802Z,98737.02
2023-10-07T19:55:46.723Z,98729.05
2023-10-07T19:58:51.019Z,98716.14
2023-10-07T20:01:56.233Z,98707.77
2023-10-07T20:05:00.308Z,98706.51
2023-10-07T20:08:04.905Z,98703.95
2023-10-07T20:11:10.564Z,98705.20
2023-10-07T20:14:16.341Z,98703.91
2023-10-07T20:17:20.500Z,98707.11
2023-10-07T20:20:24.757Z,98703.91
2023-10-07T20:23:29.734Z,98700.23
2023-10-07T20:26:33.733Z,98699.25
2023-10-07T20:29:37.835Z,98697.29
2023-10-07T20:32:42.007Z,98696.45
2023-10-07T20:35:46.075Z,98697.25
2023-10-07T20:38:52.575Z,98692.69
2023-10-07T20:41:56.617Z,98685.55
2023-10-07T20:45:01.104Z,98679.71
2023-10-07T20:48:06.181Z,98676.40
2023-10-07T20:51:11.815Z,98682.09
2023-10-07T20:54:16.168Z,98681.64
2023-10-07T20:57:20.243Z,98670.00
2023-10-07T21:00:24.621Z,98672.35
2023-10-07T21:03:28.988Z,98673.05
2023-10-07T21:06:33.276Z,98667.17
2023-10-07T21:09:37.307Z,98656.30
2023-10-07T21:12:41.181Z,98646.40
2023-10-07T21:15:45.208Z,98634.81
2023-10-07T21:18:49.155Z,98624.84
2023-10-07T21:21:53.270Z,98615.52
2023-10-07T21:24:57.981Z,98606.51
2023-10-07T21:28:01.929Z,98601.27
2023-10-07T21:31:06.380Z,98596.52
2023-10-07T21:34:11.390Z,98595.83
2023-10-07T21:37:15.520Z,98595.48
2023-10-07T21:40:19.494Z,98590.94
2023-10-07T21:43:23.468Z,98582.64
2023-10-07T21:46:27.479Z,98579.02
2023-10-07T21:49:31.461Z,98579.11
2023-10-07T21:52:35.440Z,98582.65
2023-10-07T21:55:39.538Z,98576.24
2023-10-07T21:58:43.986Z,98575.66
2023-10-07T22:01:47.976Z,98575.82
2023-10-07T22:04:52.043Z,98572.05
2023-10-07T22:07:57.614Z,98570.02
2023-10-07T22:11:01.868Z,98560.23
2023-10-07T22:14:06.546Z,98552.46
2023-10-07T22:17:10.618Z,98547.86
2023-10-07T22:20:15.970Z,98538.19
2023-10-07T22:23:22.435Z,98535.25
2023-10-07T22:26:26.732Z,98527.19
2023-10-07T22:29:33.112Z,98523.56
2023-10-07T22:32:38.214Z,98517.64
2023-10-07T22:35:42.721Z,98514.60
2023-10-07T22:38:54.773Z,98508.90
2023-10-07T22:42:01.590Z,98504.70
2023-10-07T22:45:12.344Z,98507.75
2023-10-07T22:48:28.857Z,98511.11
2023-10-07T22:51:33.579Z,98522.52
2023-10-07T22:54:44.577Z,98522.30
2023-10-07T22:57:48.445Z,98522.88
2023-10-07T23:00:52.483Z,98524.17
2023-10-07T23:04:10.921Z,98524.79
2023-10-07T23:07:24.437Z,98526.33
2023-10-07T23:10:36.572Z,98524.20
2023-10-07T23:13:40.458Z,98530.41
2023-10-07T23:16:47.774Z,98535.86
2023-10-07T23:19:52.085Z,98535.77
2023-10-07T23:22:57.835Z,98537.25
2023-10-07T23:26:02.007Z,98537.83
2023-10-07T23:29:07.539Z,98540.54
2023-10-07T23:32:16.406Z,98538.14
2023-10-07T23:35:24.656Z,98526.90
2023-10-07T23:38:28.769Z,98517.42
2023-10-07T23:41:32.895Z,98511.28
2023-10-07T23:44:37.685Z,98511.20
2023-10-07T23:47:42.401Z,98507.40
2023-10-07T23:50:48.708Z,98503.55
2023-10-07T23:53:53.358Z,98504.20
2023-10-07T23:57:01.897Z,98499.59
